createdAt,value
2018-05-12T00:00:52.757Z,16.56
2018-05-12T00:01:53.227Z,16.65
2018-05-12T00:02:53.701Z,16.76
2018-05-12T00:03:54.173Z,16.84
2018-05-12T00:04:54.646Z,16.94
2018-05-12T00:05:55.153Z,17.02
2018-05-12T00:06:55.593Z,17.11
2018-05-12T00:07:56.066Z,17.19
2018-05-12T00:08:56.540Z,17.28
2018-05-12T00:09:57.014Z,17.35
2018-05-12T00:10:57.486Z,17.43
2018-05-12T00:11:57.962Z,17.50
2018-05-12T00:12:58.434Z,17.60
2018-05-12T00:13:58.908Z,17.65
2018-05-12T00:14:59.420Z,17.65
2018-05-12T00:15:59.856Z,17.65
2018-05-12T00:17:00.330Z,17.62
2018-05-12T00:18:00.807Z,17.58
2018-05-12T00:19:01.280Z,17.48
2018-05-12T00:20:01.754Z,17.38
2018-05-12T00:21:02.230Z,17.27
2018-05-12T00:22:02.705Z,17.13
2018-05-12T00:23:03.229Z,16.98
2018-05-12T00:24:03.656Z,16.81
2018-05-12T00:25:04.127Z,16.62
2018-05-12T00:26:04.603Z,16.44
2018-05-12T00:27:05.077Z,16.27
2018-05-12T00:28:05.550Z,16.09
2018-05-12T00:29:06.024Z,15.92
2018-05-12T00:30:06.500Z,15.75
2018-05-12T00:31:06.972Z,15.58
2018-05-12T00:32:07.448Z,15.43
2018-05-12T00:33:08.120Z,15.28
2018-05-12T00:34:08.392Z,15.12
2018-05-12T00:35:08.864Z,14.97
2018-05-12T00:36:09.339Z,14.83
2018-05-12T00:37:09.810Z,14.69
2018-05-12T00:38:10.284Z,14.55
2018-05-12T00:39:10.755Z,14.43
2018-05-12T00:40:11.229Z,14.31
2018-05-12T00:41:11.699Z,14.19
2018-05-12T00:42:12.172Z,14.09
2018-05-12T00:43:12.693Z,14.01
2018-05-12T00:44:13.114Z,13.95
2018-05-12T00:45:13.584Z,13.91
2018-05-12T00:46:14.059Z,13.89
2018-05-12T00:47:14.527Z,13.87
2018-05-12T00:48:14.997Z,13.87
2018-05-12T00:49:15.467Z,13.88
2018-05-12T00:50:15.938Z,13.92
2018-05-12T00:51:16.408Z,13.98
2018-05-12T00:52:16.886Z,14.05
2018-05-12T00:53:17.352Z,14.13
2018-05-12T00:54:17.820Z,14.22
2018-05-12T00:55:18.290Z,14.34
2018-05-12T00:56:18.965Z,14.47
2018-05-12T00:57:19.232Z,14.58
2018-05-12T00:58:19.705Z,14.72
2018-05-12T00:59:20.174Z,14.85
2018-05-12T01:00:20.645Z,14.99
2018-05-12T01:01:21.114Z,15.12
2018-05-12T01:02:21.586Z,15.26
2018-05-12T01:03:22.056Z,15.38
2018-05-12T01:04:22.529Z,15.52
2018-05-12T01:05:22.999Z,15.66
2018-05-12T01:06:23.472Z,15.77
2018-05-12T01:07:23.943Z,15.87
2018-05-12T01:08:24.419Z,15.99
2018-05-12T01:09:24.886Z,16.10
2018-05-12T01:10:25.358Z,16.20
2018-05-12T01:11:25.829Z,16.30
2018-05-12T01:12:26.303Z,16.40
2018-05-12T01:13:26.774Z,16.48
2018-05-12T01:14:27.248Z,16.58
2018-05-12T01:15:27.719Z,16.65
2018-05-12T01:16:28.192Z,16.74
2018-05-12T01:17:28.667Z,16.82
2018-05-12T01:18:29.137Z,16.89
2018-05-12T01:19:29.611Z,16.95
2018-05-12T01:20:30.087Z,17.01
2018-05-12T01:21:30.558Z,17.08
2018-05-12T01:22:31.031Z,17.13
2018-05-12T01:23:31.503Z,17.18
2018-05-12T01:24:31.978Z,17.24
2018-05-12T01:25:32.450Z,17.30
2018-05-12T01:26:32.926Z,17.35
2018-05-12T01:27:33.400Z,17.41
2018-05-12T01:28:33.874Z,17.38
2018-05-12T01:29:34.349Z,17.37
2018-05-12T01:30:34.821Z,17.34
2018-05-12T01:31:35.297Z,17.27
2018-05-12T01:32:35.771Z,17.19
2018-05-12T01:33:36.299Z,17.08
2018-05-12T01:34:36.721Z,16.95
2018-05-12T01:35:37.194Z,16.80
2018-05-12T01:36:37.672Z,16.63
2018-05-12T01:37:38.143Z,16.45
2018-05-12T01:38:38.618Z,16.30
2018-05-12T01:39:39.092Z,16.12
2018-05-12T01:40:39.571Z,15.95
2018-05-12T01:41:40.041Z,15.76
2018-05-12T01:42:40.514Z,15.58
2018-05-12T01:43:40.989Z,15.40
2018-05-12T01:44:41.459Z,15.22
2018-05-12T01:45:41.933Z,15.04
2018-05-12T01:46:42.408Z,14.87
2018-05-12T01:47:42.881Z,14.71
2018-05-12T01:48:43.353Z,14.56
2018-05-12T01:49:43.827Z,14.40
2018-05-12T01:50:44.298Z,14.25
2018-05-12T01:51:44.769Z,14.10
2018-05-12T01:52:45.240Z,13.97
2018-05-12T01:53:45.764Z,13.84
2018-05-12T01:54:46.186Z,13.74
2018-05-12T01:55:46.656Z,13.66
2018-05-12T01:56:47.128Z,13.59
2018-05-12T01:57:47.598Z,13.55
2018-05-12T01:58:48.070Z,13.51
2018-05-12T01:59:48.539Z,13.49
2018-05-12T02:00:49.012Z,13.50
2018-05-12T02:01:49.481Z,13.51
2018-05-12T02:02:49.954Z,13.55
2018-05-12T02:03:50.472Z,13.61
2018-05-12T02:04:50.893Z,13.69
2018-05-12T02:05:51.366Z,13.79
2018-05-12T02:06:51.835Z,13.88
2018-05-12T02:07:52.305Z,14.00
2018-05-12T02:08:52.776Z,14.13
2018-05-12T02:09:53.245Z,14.26
2018-05-12T02:10:53.722Z,14.39
2018-05-12T02:11:54.186Z,14.52
2018-05-12T02:12:54.658Z,14.65
2018-05-12T02:13:55.181Z,14.78
2018-05-12T02:14:55.602Z,14.91
2018-05-12T02:15:56.072Z,15.04
2018-05-12T02:16:56.541Z,15.14
2018-05-12T02:17:57.014Z,15.27
2018-05-12T02:18:57.537Z,15.38
2018-05-12T02:19:57.957Z,15.49
2018-05-12T02:20:58.428Z,15.60
2018-05-12T02:21:58.905Z,15.71
2018-05-12T02:22:59.373Z,15.79
2018-05-12T02:23:59.844Z,15.90
2018-05-12T02:25:00.320Z,16.00
2018-05-12T02:26:00.790Z,16.07
2018-05-12T02:27:01.261Z,16.15
2018-05-12T02:28:01.734Z,16.24
2018-05-12T02:29:02.206Z,16.32
2018-05-12T02:30:02.687Z,16.40
2018-05-12T02:31:03.153Z,16.47
2018-05-12T02:32:03.623Z,16.54
2018-05-12T02:33:04.098Z,16.59
2018-05-12T02:34:04.572Z,16.68
2018-05-12T02:35:05.045Z,16.75
2018-05-12T02:36:05.522Z,16.80
2018-05-12T02:37:05.992Z,16.87
2018-05-12T02:38:06.463Z,16.94
2018-05-12T02:39:06.940Z,17.00
2018-05-12T02:40:07.414Z,17.04
2018-05-12T02:41:07.887Z,17.10
2018-05-12T02:42:08.360Z,17.13
2018-05-12T02:43:08.836Z,17.13
2018-05-12T02:44:09.311Z,17.11
2018-05-12T02:45:09.782Z,17.05
2018-05-12T02:46:10.257Z,16.99
2018-05-12T02:47:10.732Z,16.90
2018-05-12T02:48:11.209Z,16.80
2018-05-12T02:49:11.681Z,16.67
2018-05-12T02:50:12.156Z,16.54
2018-05-12T02:51:12.631Z,16.39
2018-05-12T02:52:13.104Z,16.23
2018-05-12T02:53:13.579Z,16.06
2018-05-12T02:54:14.105Z,15.88
2018-05-12T02:55:14.531Z,15.70
2018-05-12T02:56:15.000Z,15.51
2018-05-12T02:57:15.475Z,15.32
2018-05-12T02:58:15.947Z,15.14
2018-05-12T02:59:16.419Z,14.97
2018-05-12T03:00:16.894Z,14.80
2018-05-12T03:01:17.367Z,14.64
2018-05-12T03:02:17.841Z,14.48
2018-05-12T03:03:18.315Z,14.33
2018-05-12T03:04:18.783Z,14.18
2018-05-12T03:05:19.257Z,14.04
2018-05-12T03:06:19.729Z,13.90
2018-05-12T03:07:20.202Z,13.79
2018-05-12T03:08:20.673Z,13.68
2018-05-12T03:09:21.144Z,13.60
2018-05-12T03:10:21.613Z,13.54
2018-05-12T03:11:22.086Z,13.49
2018-05-12T03:12:22.557Z,13.45
2018-05-12T03:13:23.032Z,13.44
2018-05-12T03:14:23.551Z,13.43
2018-05-12T03:15:23.969Z,13.45
2018-05-12T03:16:24.438Z,13.47
2018-05-12T03:17:24.908Z,13.52
2018-05-12T03:18:25.380Z,13.58
2018-05-12T03:19:25.851Z,13.68
2018-05-12T03:20:26.321Z,13.78
2018-05-12T03:21:26.790Z,13.88
2018-05-12T03:22:27.261Z,13.98
2018-05-12T03:23:27.735Z,14.10
2018-05-12T03:24:28.202Z,14.22
2018-05-12T03:25:28.673Z,14.32
2018-05-12T03:26:29.144Z,14.43
2018-05-12T03:27:29.615Z,14.52
2018-05-12T03:28:30.085Z,14.65
2018-05-12T03:29:30.555Z,14.76
2018-05-12T03:30:31.027Z,14.87
2018-05-12T03:31:31.712Z,14.95
2018-05-12T03:32:31.968Z,15.06
2018-05-12T03:33:32.440Z,15.16
2018-05-12T03:34:32.912Z,15.27
2018-05-12T03:35:33.383Z,15.35
2018-05-12T03:36:33.855Z,15.45
2018-05-12T03:37:34.326Z,15.52
2018-05-12T03:38:34.797Z,15.63
2018-05-12T03:39:35.268Z,15.71
2018-05-12T03:40:35.740Z,15.79
2018-05-12T03:41:36.212Z,15.87
2018-05-12T03:42:36.686Z,15.96
2018-05-12T03:43:37.157Z,16.03
2018-05-12T03:44:37.628Z,16.09
2018-05-12T03:45:38.104Z,16.15
2018-05-12T03:46:38.576Z,16.21
2018-05-12T03:47:39.082Z,16.28
2018-05-12T03:48:39.518Z,16.34
2018-05-12T03:49:39.992Z,16.39
2018-05-12T03:50:40.470Z,16.44
2018-05-12T03:51:40.937Z,16.52
2018-05-12T03:52:41.411Z,16.56
2018-05-12T03:53:41.884Z,16.60
2018-05-12T03:54:42.359Z,16.64
2018-05-12T03:55:42.832Z,16.69
2018-05-12T03:56:43.305Z,16.73
2018-05-12T03:57:43.779Z,16.76
2018-05-12T03:58:44.255Z,16.80
2018-05-12T03:59:44.778Z,16.82
2018-05-12T04:00:45.199Z,16.85
2018-05-12T04:01:45.675Z,16.85
2018-05-12T04:02:46.147Z,16.85
2018-05-12T04:03:46.621Z,16.82
2018-05-12T04:04:47.095Z,16.77
2018-05-12T04:05:47.570Z,16.69
2018-05-12T04:06:48.046Z,16.58
2018-05-12T04:07:48.519Z,16.43
2018-05-12T04:08:48.993Z,16.28
2018-05-12T04:09:49.467Z,16.11
2018-05-12T04:10:49.943Z,15.93
2018-05-12T04:11:50.415Z,15.75
2018-05-12T04:12:50.891Z,15.56
2018-05-12T04:13:51.364Z,15.37
2018-05-12T04:14:51.838Z,15.17
2018-05-12T04:15:52.310Z,14.99
2018-05-12T04:16:52.783Z,14.80
2018-05-12T04:18:53.731Z,14.43
2018-05-12T04:19:54.204Z,14.26
2018-05-12T04:20:54.758Z,14.10
2018-05-12T04:22:55.620Z,13.79
2018-05-12T04:23:56.094Z,13.64
2018-05-12T04:24:56.764Z,13.50
2018-05-12T04:25:57.033Z,13.41
2018-05-12T04:26:57.506Z,13.33
2018-05-12T04:27:57.977Z,13.28
2018-05-12T04:28:58.448Z,13.22
2018-05-12T04:29:58.921Z,13.18
2018-05-12T04:30:59.411Z,13.16
2018-05-12T04:31:59.860Z,13.17
2018-05-12T04:33:00.330Z,13.18
2018-05-12T04:34:00.802Z,13.22
2018-05-12T04:35:01.274Z,13.27
2018-05-12T04:36:01.742Z,13.34
2018-05-12T04:37:02.211Z,13.44
2018-05-12T04:38:02.681Z,13.53
2018-05-12T04:39:03.154Z,13.63
2018-05-12T04:40:03.673Z,13.76
2018-05-12T04:41:04.093Z,13.89
2018-05-12T04:42:04.564Z,14.02
2018-05-12T04:43:05.033Z,14.15
2018-05-12T04:44:05.513Z,14.27
2018-05-12T04:45:05.976Z,14.42
2018-05-12T04:46:06.649Z,14.54
2018-05-12T04:47:06.917Z,14.66
2018-05-12T04:48:07.388Z,14.77
2018-05-12T04:49:07.859Z,14.87
2018-05-12T04:50:08.380Z,14.98
2018-05-12T04:51:08.800Z,15.07
2018-05-12T04:52:09.272Z,15.18
2018-05-12T04:53:09.743Z,15.26
2018-05-12T04:54:10.282Z,15.36
2018-05-12T04:55:10.686Z,15.46
2018-05-12T04:56:11.161Z,15.53
2018-05-12T04:57:11.633Z,15.60
2018-05-12T04:58:12.186Z,15.65
2018-05-12T04:59:12.574Z,15.72
2018-05-12T05:00:13.097Z,15.75
2018-05-12T05:01:13.517Z,15.78
2018-05-12T05:02:13.991Z,15.84
2018-05-12T05:03:14.461Z,15.90
2018-05-12T05:04:14.940Z,15.99
2018-05-12T05:05:15.407Z,16.06
2018-05-12T05:06:15.881Z,16.14
2018-05-12T05:07:16.356Z,16.19
2018-05-12T05:08:16.884Z,16.25
2018-05-12T05:09:17.305Z,16.31
2018-05-12T05:10:17.822Z,16.37
2018-05-12T05:11:18.245Z,16.42
2018-05-12T05:12:18.718Z,16.44
2018-05-12T05:13:19.192Z,16.49
2018-05-12T05:14:19.666Z,16.53
2018-05-12T05:15:20.201Z,16.56
2018-05-12T05:16:20.613Z,16.61
2018-05-12T05:17:21.088Z,16.65
2018-05-12T05:18:21.562Z,16.70
2018-05-12T05:19:22.035Z,16.74
2018-05-12T05:20:22.511Z,16.77
2018-05-12T05:21:22.984Z,16.77
2018-05-12T05:22:23.459Z,16.73
2018-05-12T05:23:23.934Z,16.66
2018-05-12T05:24:24.407Z,16.58
2018-05-12T05:25:24.932Z,16.49
2018-05-12T05:26:25.363Z,16.39
2018-05-12T05:27:25.829Z,16.26
2018-05-12T05:28:26.306Z,16.12
2018-05-12T05:29:26.781Z,15.98
2018-05-12T05:30:27.254Z,15.82
2018-05-12T05:31:27.727Z,15.64
2018-05-12T05:32:28.200Z,15.47
2018-05-12T05:33:28.674Z,15.27
2018-05-12T05:34:29.147Z,15.08
2018-05-12T05:35:29.622Z,14.88
2018-05-12T05:36:30.095Z,14.71
2018-05-12T05:37:30.570Z,14.54
2018-05-12T05:38:31.041Z,14.38
2018-05-12T05:39:31.513Z,14.21
2018-05-12T05:40:31.987Z,14.07
2018-05-12T05:41:32.493Z,13.96
2018-05-12T05:42:32.934Z,13.87
2018-05-12T05:43:33.402Z,13.80
2018-05-12T05:44:33.875Z,13.73
2018-05-12T05:45:34.399Z,13.68
2018-05-12T05:46:34.817Z,13.64
2018-05-12T05:47:35.292Z,13.63
2018-05-12T05:48:35.763Z,13.64
2018-05-12T05:49:36.231Z,13.66
2018-05-12T05:50:36.704Z,13.69
2018-05-12T05:51:37.176Z,13.74
2018-05-12T05:52:37.645Z,13.81
2018-05-12T05:53:38.116Z,13.90
2018-05-12T05:54:38.587Z,14.02
2018-05-12T05:55:39.059Z,14.16
2018-05-12T05:56:39.533Z,14.29
2018-05-12T05:57:39.999Z,14.44
2018-05-12T05:58:40.542Z,14.59
2018-05-12T05:59:40.940Z,14.74
2018-05-12T06:00:41.465Z,14.87
2018-05-12T06:01:41.885Z,15.01
2018-05-12T06:02:42.359Z,15.13
2018-05-12T06:03:42.828Z,15.27
2018-05-12T06:04:43.301Z,15.42
2018-05-12T06:05:43.772Z,15.58
2018-05-12T06:06:44.246Z,15.70
2018-05-12T06:07:44.718Z,15.83
2018-05-12T06:08:45.188Z,15.96
2018-05-12T06:09:45.661Z,16.09
2018-05-12T06:10:46.136Z,16.22
2018-05-12T06:11:46.609Z,16.35
2018-05-12T06:12:47.080Z,16.45
2018-05-12T06:13:47.551Z,16.56
2018-05-12T06:14:48.025Z,16.66
2018-05-12T06:15:48.551Z,16.77
2018-05-12T06:16:48.972Z,16.85
2018-05-12T06:17:49.445Z,16.93
2018-05-12T06:18:49.923Z,17.03
2018-05-12T06:19:50.396Z,17.12
2018-05-12T06:20:50.874Z,17.21
2018-05-12T06:21:51.341Z,17.31
2018-05-12T06:22:51.817Z,17.38
2018-05-12T06:23:52.291Z,17.42
2018-05-12T06:24:52.767Z,17.45
2018-05-12T06:25:53.291Z,17.44
2018-05-12T06:26:53.717Z,17.41
2018-05-12T06:27:54.269Z,17.36
2018-05-12T06:28:54.666Z,17.30
2018-05-12T06:29:55.146Z,17.21
2018-05-12T06:30:55.617Z,17.11
2018-05-12T06:31:56.094Z,17.00
2018-05-12T06:32:56.573Z,16.88
2018-05-12T06:33:57.043Z,16.75
2018-05-12T06:34:57.517Z,16.60
2018-05-12T06:35:57.994Z,16.47
2018-05-12T06:36:58.471Z,16.34
2018-05-12T06:37:58.943Z,16.19
2018-05-12T06:38:59.422Z,16.08
2018-05-12T06:39:59.896Z,15.96
2018-05-12T06:41:00.370Z,15.84
2018-05-12T06:42:00.842Z,15.72
2018-05-12T06:43:01.318Z,15.60
2018-05-12T06:44:01.792Z,15.49
2018-05-12T06:45:02.269Z,15.39
2018-05-12T06:46:02.790Z,15.28
2018-05-12T06:47:03.214Z,15.19
2018-05-12T06:48:03.688Z,15.11
2018-05-12T06:49:04.161Z,15.02
2018-05-12T06:50:04.634Z,14.92
2018-05-12T06:51:05.107Z,14.82
2018-05-12T06:52:05.580Z,14.73
2018-05-12T06:53:06.054Z,14.63
2018-05-12T06:54:06.524Z,14.53
2018-05-12T06:55:06.998Z,14.45
2018-05-12T06:56:07.470Z,14.37
2018-05-12T06:57:07.942Z,14.33
2018-05-12T06:58:08.414Z,14.29
2018-05-12T06:59:08.888Z,14.28
2018-05-12T07:00:09.358Z,14.27
2018-05-12T07:01:09.881Z,14.27
2018-05-12T07:02:10.324Z,14.30
2018-05-12T07:03:10.774Z,14.37
2018-05-12T07:04:11.247Z,14.44
2018-05-12T07:05:11.720Z,14.54
2018-05-12T07:06:12.188Z,14.64
2018-05-12T07:08:13.133Z,14.87
2018-05-12T07:09:13.806Z,15.01
2018-05-12T07:10:14.077Z,15.14
2018-05-12T07:11:14.548Z,15.29
2018-05-12T07:12:15.045Z,15.45
2018-05-12T07:13:15.494Z,15.59
2018-05-12T07:14:15.964Z,15.74
2018-05-12T07:15:16.439Z,15.89
2018-05-12T07:16:16.910Z,16.04
2018-05-12T07:17:17.387Z,16.18
2018-05-12T07:18:17.853Z,16.34
2018-05-12T07:19:18.333Z,16.49
2018-05-12T07:20:18.800Z,16.65
2018-05-12T07:21:19.325Z,16.82
2018-05-12T07:22:19.747Z,16.97
2018-05-12T07:23:20.220Z,17.11
2018-05-12T07:24:20.697Z,17.24
2018-05-12T07:25:21.171Z,17.37
2018-05-12T07:26:21.643Z,17.48
2018-05-12T07:27:22.116Z,17.62
2018-05-12T07:28:22.592Z,17.75
2018-05-12T07:29:23.069Z,17.88
2018-05-12T07:30:23.543Z,18.00
2018-05-12T07:31:24.021Z,18.07
2018-05-12T07:32:24.494Z,18.11
2018-05-12T07:33:24.968Z,18.13
2018-05-12T07:34:25.441Z,18.14
2018-05-12T07:35:25.919Z,18.14
2018-05-12T07:36:26.443Z,18.11
2018-05-12T07:37:26.871Z,18.05
2018-05-12T07:38:27.344Z,17.98
2018-05-12T07:39:27.823Z,17.88
2018-05-12T07:40:28.299Z,17.78
2018-05-12T07:41:28.774Z,17.67
2018-05-12T07:42:29.249Z,17.56
2018-05-12T07:43:29.727Z,17.45
2018-05-12T07:44:30.204Z,17.35
2018-05-12T07:45:30.679Z,17.24
2018-05-12T07:46:31.202Z,17.15
2018-05-12T07:47:31.829Z,17.06
2018-05-12T07:48:32.103Z,16.97
2018-05-12T07:49:32.580Z,16.89
2018-05-12T07:50:33.053Z,16.82
2018-05-12T07:51:33.613Z,16.76
2018-05-12T07:52:34.002Z,16.71
2018-05-12T07:53:34.479Z,16.64
2018-05-12T07:54:34.952Z,16.57
2018-05-12T07:55:35.430Z,16.48
2018-05-12T07:56:36.157Z,16.39
2018-05-12T07:57:36.377Z,16.30
2018-05-12T07:58:36.851Z,16.20
2018-05-12T07:59:37.324Z,16.12
2018-05-12T08:00:37.798Z,16.04
2018-05-12T08:01:38.271Z,15.96
2018-05-12T08:02:38.743Z,15.89
2018-05-12T08:03:39.219Z,15.82
2018-05-12T08:04:39.693Z,15.77
2018-05-12T08:05:40.166Z,15.73
2018-05-12T08:06:40.638Z,15.70
2018-05-12T08:07:41.111Z,15.66
2018-05-12T08:08:41.589Z,15.61
2018-05-12T08:09:42.057Z,15.56
2018-05-12T08:10:42.527Z,15.50
2018-05-12T08:11:43.003Z,15.45
2018-05-12T08:12:43.476Z,15.41
2018-05-12T08:13:43.946Z,15.39
2018-05-12T08:14:44.420Z,15.38
2018-05-12T08:15:44.891Z,15.39
2018-05-12T08:16:45.413Z,15.40
2018-05-12T08:17:45.837Z,15.43
2018-05-12T08:18:46.306Z,15.48
2018-05-12T08:19:46.781Z,15.56
2018-05-12T08:20:47.252Z,15.67
2018-05-12T08:21:47.725Z,15.79
2018-05-12T08:22:48.195Z,15.91
2018-05-12T08:23:48.667Z,16.04
2018-05-12T08:24:49.140Z,16.18
2018-05-12T08:25:49.616Z,16.35
2018-05-12T08:26:50.158Z,16.55
2018-05-12T08:27:50.558Z,16.74
2018-05-12T08:28:51.031Z,16.93
2018-05-12T08:29:51.504Z,17.11
2018-05-12T08:30:51.976Z,17.29
2018-05-12T08:31:52.451Z,17.46
2018-05-12T08:32:52.925Z,17.64
2018-05-12T08:33:53.398Z,17.86
2018-05-12T08:34:53.871Z,18.09
2018-05-12T08:35:54.346Z,18.32
2018-05-12T08:36:54.820Z,18.53
2018-05-12T08:37:55.295Z,18.71
2018-05-12T08:38:55.769Z,18.87
2018-05-12T08:39:56.245Z,19.01
2018-05-12T08:40:56.720Z,19.14
2018-05-12T08:41:57.198Z,19.25
2018-05-12T08:42:57.675Z,19.33
2018-05-12T08:43:58.147Z,19.36
2018-05-12T08:44:58.624Z,19.37
2018-05-12T08:45:59.144Z,19.35
2018-05-12T08:46:59.577Z,19.31
2018-05-12T08:48:00.054Z,19.27
2018-05-12T08:49:00.529Z,19.26
2018-05-12T08:50:01.009Z,19.22
2018-05-12T08:51:01.483Z,19.17
2018-05-12T08:52:01.961Z,19.09
2018-05-12T08:53:02.436Z,18.99
2018-05-12T08:54:02.913Z,18.89
2018-05-12T08:55:03.389Z,18.83
2018-05-12T08:56:03.871Z,18.78
2018-05-12T08:57:04.343Z,18.72
2018-05-12T08:58:04.820Z,18.68
2018-05-12T08:59:05.295Z,18.60
2018-05-12T09:00:05.771Z,18.48
2018-05-12T09:01:06.247Z,18.37
2018-05-12T09:02:06.726Z,18.28
2018-05-12T09:03:07.197Z,18.17
2018-05-12T09:04:07.680Z,18.07
2018-05-12T09:05:08.150Z,18.02
2018-05-12T09:06:08.626Z,17.99
2018-05-12T09:07:09.105Z,17.96
2018-05-12T09:08:09.578Z,17.93
2018-05-12T09:09:10.052Z,17.89
2018-05-12T09:10:10.527Z,17.86
2018-05-12T09:11:11.002Z,17.82
2018-05-12T09:12:11.729Z,17.80
2018-05-12T09:13:11.953Z,17.77
2018-05-12T09:14:12.428Z,17.74
2018-05-12T09:15:12.901Z,17.71
2018-05-12T09:16:13.375Z,17.64
2018-05-12T09:17:13.849Z,17.59
2018-05-12T09:18:14.325Z,17.56
2018-05-12T09:19:14.814Z,17.51
2018-05-12T09:20:15.271Z,17.48
2018-05-12T09:21:15.745Z,17.45
2018-05-12T09:22:16.221Z,17.41
2018-05-12T09:23:16.693Z,17.39
2018-05-12T09:24:17.166Z,17.36
2018-05-12T09:25:17.643Z,17.33
2018-05-12T09:26:18.113Z,17.29
2018-05-12T09:27:18.636Z,17.25
2018-05-12T09:28:19.058Z,17.23
2018-05-12T09:29:19.531Z,17.20
2018-05-12T09:30:20.008Z,17.17
2018-05-12T09:31:20.477Z,17.15
2018-05-12T09:32:20.951Z,17.13
2018-05-12T09:33:21.423Z,17.12
2018-05-12T09:34:21.899Z,17.10
2018-05-12T09:35:22.373Z,17.08
2018-05-12T09:36:22.840Z,17.05
2018-05-12T09:37:23.313Z,17.03
2018-05-12T09:38:23.787Z,16.98
2018-05-12T09:39:24.258Z,16.95
2018-05-12T09:40:24.731Z,16.94
2018-05-12T09:41:25.203Z,16.93
2018-05-12T09:42:25.725Z,16.94
2018-05-12T09:43:26.147Z,16.96
2018-05-12T09:44:26.617Z,17.01
2018-05-12T09:45:27.090Z,17.04
2018-05-12T09:46:27.563Z,17.08
2018-05-12T09:47:28.086Z,17.13
2018-05-12T09:48:28.507Z,17.21
2018-05-12T09:49:28.978Z,17.33
2018-05-12T09:50:29.450Z,17.44
2018-05-12T09:51:29.922Z,17.58
2018-05-12T09:52:30.395Z,17.72
2018-05-12T09:53:30.866Z,17.88
2018-05-12T09:54:31.340Z,18.05
2018-05-12T09:55:31.827Z,18.22
2018-05-12T09:56:32.286Z,18.38
2018-05-12T09:57:32.757Z,18.56
2018-05-12T09:58:33.232Z,18.71
2018-05-12T09:59:33.717Z,18.89
2018-05-12T10:00:34.178Z,19.02
2018-05-12T10:01:34.652Z,19.17
2018-05-12T10:02:35.127Z,19.34
2018-05-12T10:03:35.606Z,19.51
2018-05-12T10:04:36.076Z,19.69
2018-05-12T10:05:36.553Z,19.86
2018-05-12T10:06:37.031Z,20.01
2018-05-12T10:07:37.501Z,20.16
2018-05-12T10:08:37.976Z,20.27
2018-05-12T10:09:38.469Z,20.34
2018-05-12T10:10:38.928Z,20.39
2018-05-12T10:11:39.403Z,20.41
2018-05-12T10:12:39.881Z,20.41
2018-05-12T10:13:40.356Z,20.38
2018-05-12T10:14:40.831Z,20.33
2018-05-12T10:15:41.309Z,20.25
2018-05-12T10:16:41.785Z,20.19
2018-05-12T10:17:42.311Z,20.11
2018-05-12T10:18:42.738Z,20.03
2018-05-12T10:19:43.212Z,19.95
2018-05-12T10:20:43.707Z,19.85
2018-05-12T10:21:44.166Z,19.74
2018-05-12T10:22:44.694Z,19.64
2018-05-12T10:23:45.118Z,19.54
2018-05-12T10:24:45.600Z,19.44
2018-05-12T10:25:46.072Z,19.36
2018-05-12T10:26:46.548Z,19.28
2018-05-12T10:27:47.025Z,19.21
2018-05-12T10:28:47.499Z,19.15
2018-05-12T10:29:47.977Z,19.07
2018-05-12T10:30:48.452Z,19.01
2018-05-12T10:31:48.926Z,18.95
2018-05-12T10:32:49.659Z,18.86
2018-05-12T10:33:49.877Z,18.77
2018-05-12T10:34:50.354Z,18.70
2018-05-12T10:35:50.829Z,18.64
2018-05-12T10:36:51.304Z,18.58
2018-05-12T10:37:51.780Z,18.54
2018-05-12T10:38:52.326Z,18.48
2018-05-12T10:39:52.730Z,18.42
2018-05-12T10:40:53.204Z,18.33
2018-05-12T10:41:53.677Z,18.22
2018-05-12T10:42:54.154Z,18.11
2018-05-12T10:43:54.629Z,18.01
2018-05-12T10:44:55.151Z,17.95
2018-05-12T10:45:55.577Z,17.91
2018-05-12T10:46:56.055Z,17.89
2018-05-12T10:47:56.526Z,17.88
2018-05-12T10:48:57.003Z,17.86
2018-05-12T10:49:57.473Z,17.85
2018-05-12T10:50:57.948Z,17.84
2018-05-12T10:51:58.421Z,17.83
2018-05-12T10:52:58.947Z,17.80
2018-05-12T10:53:59.368Z,17.78
2018-05-12T10:54:59.841Z,17.73
2018-05-12T10:56:00.314Z,17.67
2018-05-12T10:57:00.788Z,17.58
2018-05-12T10:58:01.313Z,17.49
2018-05-12T10:59:01.735Z,17.41
2018-05-12T11:00:02.208Z,17.35
2018-05-12T11:01:02.680Z,17.31
2018-05-12T11:02:03.191Z,17.27
2018-05-12T11:03:03.630Z,17.24
2018-05-12T11:04:04.097Z,17.22
2018-05-12T11:05:04.575Z,17.19
2018-05-12T11:06:05.044Z,17.17
2018-05-12T11:07:05.521Z,17.16
2018-05-12T11:08:05.989Z,17.14
2018-05-12T11:09:06.461Z,17.12
2018-05-12T11:10:06.934Z,17.10
2018-05-12T11:11:07.405Z,17.08
2018-05-12T11:12:07.881Z,17.04
2018-05-12T11:13:08.351Z,16.98
2018-05-12T11:14:08.821Z,16.92
2018-05-12T11:15:09.296Z,16.86
2018-05-12T11:16:09.792Z,16.81
2018-05-12T11:17:10.239Z,16.77
2018-05-12T11:18:10.711Z,16.74
2018-05-12T11:19:11.183Z,16.73
2018-05-12T11:20:11.727Z,16.74
2018-05-12T11:21:12.126Z,16.79
2018-05-12T11:22:12.597Z,16.87
2018-05-12T11:23:13.070Z,16.98
2018-05-12T11:24:13.541Z,17.11
2018-05-12T11:25:14.015Z,17.25
2018-05-12T11:26:14.485Z,17.40
2018-05-12T11:27:14.958Z,17.57
2018-05-12T11:28:15.428Z,17.73
2018-05-12T11:29:15.902Z,17.92
2018-05-12T11:30:16.374Z,18.11
2018-05-12T11:31:16.851Z,18.29
2018-05-12T11:32:17.411Z,18.47
2018-05-12T11:33:17.845Z,18.64
2018-05-12T11:34:18.270Z,18.81
2018-05-12T11:35:18.741Z,19.00
2018-05-12T11:36:19.215Z,19.19
2018-05-12T11:37:19.687Z,19.41
2018-05-12T11:38:20.163Z,19.62
2018-05-12T11:39:20.637Z,19.80
2018-05-12T11:40:21.112Z,19.94
2018-05-12T11:41:21.586Z,20.05
2018-05-12T11:42:22.062Z,20.17
2018-05-12T11:43:22.538Z,20.26
2018-05-12T11:44:23.019Z,20.34
2018-05-12T11:45:23.491Z,20.39
2018-05-12T11:46:23.965Z,20.42
2018-05-12T11:47:24.439Z,20.44
2018-05-12T11:48:24.966Z,20.44
2018-05-12T11:49:25.391Z,20.42
2018-05-12T11:50:25.870Z,20.37
2018-05-12T11:51:26.389Z,20.32
2018-05-12T11:52:26.821Z,20.26
2018-05-12T11:53:27.298Z,20.19
2018-05-12T11:54:27.776Z,20.09
2018-05-12T11:55:28.260Z,20.00
2018-05-12T11:56:28.728Z,19.92
2018-05-12T11:57:29.205Z,19.83
2018-05-12T11:58:29.703Z,19.75
2018-05-12T11:59:30.158Z,19.68
2018-05-12T12:00:30.637Z,19.61
2018-05-12T12:01:31.110Z,19.53
2018-05-12T12:02:31.588Z,19.47
2018-05-12T12:03:32.065Z,19.41
2018-05-12T12:04:32.537Z,19.36
2018-05-12T12:05:33.015Z,19.29
2018-05-12T12:06:33.489Z,19.23
2018-05-12T12:07:33.966Z,19.15
2018-05-12T12:08:34.442Z,19.07
2018-05-12T12:09:34.918Z,19.01
2018-05-12T12:10:35.391Z,18.95
2018-05-12T12:11:35.867Z,18.91
2018-05-12T12:12:36.345Z,18.85
2018-05-12T12:13:36.818Z,18.80
2018-05-12T12:14:37.294Z,18.75
2018-05-12T12:15:37.770Z,18.70
2018-05-12T12:16:38.333Z,18.65
2018-05-12T12:17:38.718Z,18.60
2018-05-12T12:18:39.194Z,18.55
2018-05-12T12:19:39.674Z,18.50
2018-05-12T12:20:40.143Z,18.45
2018-05-12T12:21:40.616Z,18.42
2018-05-12T12:22:41.098Z,18.38
2018-05-12T12:23:41.621Z,18.34
2018-05-12T12:24:42.041Z,18.30
2018-05-12T12:25:42.515Z,18.27
2018-05-12T12:26:42.987Z,18.23
2018-05-12T12:27:43.464Z,18.20
2018-05-12T12:28:43.935Z,18.17
2018-05-12T12:29:44.419Z,18.13
2018-05-12T12:30:44.885Z,18.10
2018-05-12T12:31:45.359Z,18.06
2018-05-12T12:32:45.833Z,18.03
2018-05-12T12:33:46.358Z,18.00
2018-05-12T12:34:46.777Z,17.97
2018-05-12T12:35:47.253Z,17.94
2018-05-12T12:36:47.723Z,17.89
2018-05-12T12:37:48.197Z,17.82
2018-05-12T12:38:48.674Z,17.77
2018-05-12T12:39:49.144Z,17.73
2018-05-12T12:40:49.618Z,17.70
2018-05-12T12:41:50.092Z,17.67
2018-05-12T12:42:50.565Z,17.63
2018-05-12T12:43:51.090Z,17.60
2018-05-12T12:44:51.507Z,17.58
2018-05-12T12:45:51.984Z,17.56
2018-05-12T12:46:52.454Z,17.53
2018-05-12T12:47:52.929Z,17.49
2018-05-12T12:48:53.398Z,17.47
2018-05-12T12:49:53.871Z,17.45
2018-05-12T12:50:54.344Z,17.43
2018-05-12T12:51:54.819Z,17.41
2018-05-12T12:52:55.286Z,17.39
2018-05-12T12:53:55.762Z,17.37
2018-05-12T12:54:56.235Z,17.35
2018-05-12T12:55:56.705Z,17.35
2018-05-12T12:56:57.175Z,17.34
2018-05-12T12:57:57.648Z,17.33
2018-05-12T12:58:58.172Z,17.32
2018-05-12T12:59:58.594Z,17.31
2018-05-12T13:00:59.063Z,17.33
2018-05-12T13:01:59.536Z,17.35